Terminal Aerodrome Forecast
Issued by NWS Caribou, ME

Home | Current Version | Previous Version | Text Only | Print | Product List | Glossary On
Versions: 1 2 3 4 5 6 7 8 9 10 11 12 13 14
000
FTUS41 KCAR 262327
TAFCAR
TAF
KCAR 262327Z 2700/2724 20006KT P6SM SCT150
     FM270800 19006KT P6SM VCSH BKN050
     FM271500 20010KT 5SM -SHRA OVC008
     FM272000 21009KT 2SM SHRA VCTS SCT010 OVC030CB=

USA.gov is the U.S. government's official web portal to all federal, state and local government web resources and services.